Aladdin, Wyoming
Current Conditions -  °F | °C
As of 9:55 PM on Saturday 25 Oct 2014 (Local Time) from KW43 Reporting Station
Clear Clear  
Wind Chill: 64°   Ceiling: Unl
Heat Index: 64°   Visibility: 10mi
Dew Point: 32°   Wind: 7mph
Humidity: 30%   Direction: 190°S
Pressure: 29.82"   Gusts: NA
Location:  44.64°N, 104.18°W
Report Text: KW43 260355Z AUTO 19006KT 10SM CLR 18/00 A2982 RMK AO2
Loading
Personal Weather Stations






























Interactive Weather Map New forecast layout! Learn more

10-Day Weather Forecast

Advertisements
Track Severe Weather on mobile